sensor_id;sensor_type;location;lat;lon;timestamp;temperature;humidity
9425;DHT22;17139;52.140;11.636;2023-05-07T00:01:39;9.70;55.10
9425;DHT22;17139;52.140;11.636;2023-05-07T00:04:06;9.80;55.70
9425;DHT22;17139;52.140;11.636;2023-05-07T00:06:33;9.80;55.20
9425;DHT22;17139;52.140;11.636;2023-05-07T00:09:02;9.80;54.90
9425;DHT22;17139;52.140;11.636;2023-05-07T00:11:30;10.40;56.00
9425;DHT22;17139;52.140;11.636;2023-05-07T00:13:57;10.20;54.70
9425;DHT22;17139;52.140;11.636;2023-05-07T00:16:24;10.00;54.90
9425;DHT22;17139;52.140;11.636;2023-05-07T00:18:52;9.90;54.90
9425;DHT22;17139;52.140;11.636;2023-05-07T00:21:19;9.70;54.90
9425;DHT22;17139;52.140;11.636;2023-05-07T00:23:47;9.70;55.00
9425;DHT22;17139;52.140;11.636;2023-05-07T00:26:16;9.60;55.10
9425;DHT22;17139;52.140;11.636;2023-05-07T00:28:43;9.50;55.00
9425;DHT22;17139;52.140;11.636;2023-05-07T00:31:10;9.50;54.90
9425;DHT22;17139;52.140;11.636;2023-05-07T00:33:37;9.50;55.30
9425;DHT22;17139;52.140;11.636;2023-05-07T00:36:05;9.70;55.60
9425;DHT22;17139;52.140;11.636;2023-05-07T00:38:32;9.60;54.80
9425;DHT22;17139;52.140;11.636;2023-05-07T00:40:59;9.50;54.70
9425;DHT22;17139;52.140;11.636;2023-05-07T00:43:29;9.40;54.70
9425;DHT22;17139;52.140;11.636;2023-05-07T00:45:56;9.40;54.80
9425;DHT22;17139;52.140;11.636;2023-05-07T00:48:23;9.30;54.70
9425;DHT22;17139;52.140;11.636;2023-05-07T00:50:51;9.40;54.90
9425;DHT22;17139;52.140;11.636;2023-05-07T00:53:18;9.30;54.70
9425;DHT22;17139;52.140;11.636;2023-05-07T00:55:45;9.30;54.60
9425;DHT22;17139;52.140;11.636;2023-05-07T00:58:12;10.00;55.00
9425;DHT22;17139;52.140;11.636;2023-05-07T01:00:41;9.80;54.00
9425;DHT22;17139;52.140;11.636;2023-05-07T01:03:08;9.80;54.50
9425;DHT22;17139;52.140;11.636;2023-05-07T01:05:35;9.70;54.30
9425;DHT22;17139;52.140;11.636;2023-05-07T01:08:02;9.60;54.30
9425;DHT22;17139;52.140;11.636;2023-05-07T01:10:31;9.60;54.50
9425;DHT22;17139;52.140;11.636;2023-05-07T01:12:58;9.50;54.50
9425;DHT22;17139;52.140;11.636;2023-05-07T01:15:26;9.50;54.50
9425;DHT22;17139;52.140;11.636;2023-05-07T01:17:55;9.50;54.50
9425;DHT22;17139;52.140;11.636;2023-05-07T01:20:23;9.50;54.60
9425;DHT22;17139;52.140;11.636;2023-05-07T01:22:52;9.40;54.50
9425;DHT22;17139;52.140;11.636;2023-05-07T01:25:20;9.50;54.60
9425;DHT22;17139;52.140;11.636;2023-05-07T01:27:47;9.90;54.90
9425;DHT22;17139;52.140;11.636;2023-05-07T01:30:14;10.50;54.10
9425;DHT22;17139;52.140;11.636;2023-05-07T01:32:43;10.30;53.60
9425;DHT22;17139;52.140;11.636;2023-05-07T01:35:18;10.00;53.90
9425;DHT22;17139;52.140;11.636;2023-05-07T01:37:46;9.90;54.30
9425;DHT22;17139;52.140;11.636;2023-05-07T01:40:15;9.70;54.40
9425;DHT22;17139;52.140;11.636;2023-05-07T01:42:43;9.60;54.50
9425;DHT22;17139;52.140;11.636;2023-05-07T01:45:10;9.60;54.60
9425;DHT22;17139;52.140;11.636;2023-05-07T01:47:39;9.60;54.60
9425;DHT22;17139;52.140;11.636;2023-05-07T01:50:07;9.50;54.60
9425;DHT22;17139;52.140;11.636;2023-05-07T01:52:36;9.50;54.60
9425;DHT22;17139;52.140;11.636;2023-05-07T01:55:05;9.50;54.60
9425;DHT22;17139;52.140;11.636;2023-05-07T01:57:33;9.90;55.20
9425;DHT22;17139;52.140;11.636;2023-05-07T02:00:01;9.80;54.30
9425;DHT22;17139;52.140;11.636;2023-05-07T02:02:32;9.70;54.30
9425;DHT22;17139;52.140;11.636;2023-05-07T02:04:59;9.70;54.60
9425;DHT22;17139;52.140;11.636;2023-05-07T02:07:27;9.70;54.60
9425;DHT22;17139;52.140;11.636;2023-05-07T02:09:56;9.60;54.50
9425;DHT22;17139;52.140;11.636;2023-05-07T02:12:23;9.60;54.60
9425;DHT22;17139;52.140;11.636;2023-05-07T02:14:51;9.60;54.60
9425;DHT22;17139;52.140;11.636;2023-05-07T02:17:18;9.60;54.60
9425;DHT22;17139;52.140;11.636;2023-05-07T02:19:45;9.60;54.60
9425;DHT22;17139;52.140;11.636;2023-05-07T02:22:12;10.10;55.20
9425;DHT22;17139;52.140;11.636;2023-05-07T02:24:39;10.60;54.30
9425;DHT22;17139;52.140;11.636;2023-05-07T02:27:06;10.30;53.60
9425;DHT22;17139;52.140;11.636;2023-05-07T02:29:33;10.00;53.90
9425;DHT22;17139;52.140;11.636;2023-05-07T02:32:02;9.80;54.20
9425;DHT22;17139;52.140;11.636;2023-05-07T02:34:29;9.70;54.40
9425;DHT22;17139;52.140;11.636;2023-05-07T02:36:56;9.60;54.50
9425;DHT22;17139;52.140;11.636;2023-05-07T02:39:23;9.60;54.60
9425;DHT22;17139;52.140;11.636;2023-05-07T02:41:50;9.50;54.60
9425;DHT22;17139;52.140;11.636;2023-05-07T02:44:17;9.40;54.60
9425;DHT22;17139;52.140;11.636;2023-05-07T02:46:44;9.40;54.50
9425;DHT22;17139;52.140;11.636;2023-05-07T02:49:12;9.40;54.60
9425;DHT22;17139;52.140;11.636;2023-05-07T02:51:39;9.40;54.70
9425;DHT22;17139;52.140;11.636;2023-05-07T02:54:06;10.00;54.90
9425;DHT22;17139;52.140;11.636;2023-05-07T02:56:33;9.90;54.10
9425;DHT22;17139;52.140;11.636;2023-05-07T02:59:00;9.70;54.20
9425;DHT22;17139;52.140;11.636;2023-05-07T03:01:27;9.60;54.30
9425;DHT22;17139;52.140;11.636;2023-05-07T03:03:54;9.50;54.40
9425;DHT22;17139;52.140;11.636;2023-05-07T03:06:23;9.40;54.50
9425;DHT22;17139;52.140;11.636;2023-05-07T03:08:50;9.40;54.60
9425;DHT22;17139;52.140;11.636;2023-05-07T03:11:17;9.30;54.50
9425;DHT22;17139;52.140;11.636;2023-05-07T03:13:44;9.20;54.50
9425;DHT22;17139;52.140;11.636;2023-05-07T03:16:11;9.30;54.70
9425;DHT22;17139;52.140;11.636;2023-05-07T03:18:38;10.00;54.90
9425;DHT22;17139;52.140;11.636;2023-05-07T03:21:05;9.90;54.00
9425;DHT22;17139;52.140;11.636;2023-05-07T03:23:34;9.70;54.20
9425;DHT22;17139;52.140;11.636;2023-05-07T03:26:03;9.60;54.40
9425;DHT22;17139;52.140;11.636;2023-05-07T03:28:30;9.50;54.50
9425;DHT22;17139;52.140;11.636;2023-05-07T03:30:57;9.40;54.60
9425;DHT22;17139;52.140;11.636;2023-05-07T03:33:24;9.40;54.60
9425;DHT22;17139;52.140;11.636;2023-05-07T03:35:51;9.40;54.60
9425;DHT22;17139;52.140;11.636;2023-05-07T03:38:18;9.30;54.60
9425;DHT22;17139;52.140;11.636;2023-05-07T03:40:46;9.40;54.70
9425;DHT22;17139;52.140;11.636;2023-05-07T03:43:13;10.20;54.90
9425;DHT22;17139;52.140;11.636;2023-05-07T03:45:40;10.70;54.10
9425;DHT22;17139;52.140;11.636;2023-05-07T03:48:07;10.30;53.60
9425;DHT22;17139;52.140;11.636;2023-05-07T03:50:34;10.00;54.00
9425;DHT22;17139;52.140;11.636;2023-05-07T03:53:01;9.80;54.30
9425;DHT22;17139;52.140;11.636;2023-05-07T03:55:28;9.60;55.20
9425;DHT22;17139;52.140;11.636;2023-05-07T03:57:56;9.50;54.60
9425;DHT22;17139;52.140;11.636;2023-05-07T04:00:23;9.40;54.70
9425;DHT22;17139;52.140;11.636;2023-05-07T04:02:50;9.40;54.70
9425;DHT22;17139;52.140;11.636;2023-05-07T04:05:17;9.70;55.30
9425;DHT22;17139;52.140;11.636;2023-05-07T04:07:44;9.60;54.60
9425;DHT22;17139;52.140;11.636;2023-05-07T04:10:11;9.50;54.60
9425;DHT22;17139;52.140;11.636;2023-05-07T04:12:39;9.40;54.60
9425;DHT22;17139;52.140;11.636;2023-05-07T04:15:08;9.30;54.60
9425;DHT22;17139;52.140;11.636;2023-05-07T04:17:35;9.30;54.80
9425;DHT22;17139;52.140;11.636;2023-05-07T04:20:03;9.30;55.40
9425;DHT22;17139;52.140;11.636;2023-05-07T04:22:32;9.20;54.70
9425;DHT22;17139;52.140;11.636;2023-05-07T04:25:00;9.20;54.80
9425;DHT22;17139;52.140;11.636;2023-05-07T04:27:27;9.20;54.80
9425;DHT22;17139;52.140;11.636;2023-05-07T04:29:54;9.20;54.80
9425;DHT22;17139;52.140;11.636;2023-05-07T04:32:23;9.20;54.80
9425;DHT22;17139;52.140;11.636;2023-05-07T04:34:51;9.30;54.90
9425;DHT22;17139;52.140;11.636;2023-05-07T04:37:18;9.30;54.80
9425;DHT22;17139;52.140;11.636;2023-05-07T04:39:45;9.30;54.70
9425;DHT22;17139;52.140;11.636;2023-05-07T04:42:14;9.30;54.70
9425;DHT22;17139;52.140;11.636;2023-05-07T04:44:41;9.30;54.70
9425;DHT22;17139;52.140;11.636;2023-05-07T04:47:08;9.40;54.70
9425;DHT22;17139;52.140;11.636;2023-05-07T04:49:37;9.30;54.60
9425;DHT22;17139;52.140;11.636;2023-05-07T04:52:04;9.30;54.60
9425;DHT22;17139;52.140;11.636;2023-05-07T04:54:31;9.30;54.60
9425;DHT22;17139;52.140;11.636;2023-05-07T04:56:58;9.30;54.60
9425;DHT22;17139;52.140;11.636;2023-05-07T04:59:25;9.30;54.60
9425;DHT22;17139;52.140;11.636;2023-05-07T05:01:52;10.00;54.90
9425;DHT22;17139;52.140;11.636;2023-05-07T05:04:19;10.60;54.10
9425;DHT22;17139;52.140;11.636;2023-05-07T05:06:48;10.30;53.60
9425;DHT22;17139;52.140;11.636;2023-05-07T05:09:15;10.00;53.80
9425;DHT22;17139;52.140;11.636;2023-05-07T05:11:42;9.80;54.20
9425;DHT22;17139;52.140;11.636;2023-05-07T05:14:09;9.70;54.30
9425;DHT22;17139;52.140;11.636;2023-05-07T05:16:36;9.70;54.50
9425;DHT22;17139;52.140;11.636;2023-05-07T05:19:03;9.60;54.50
9425;DHT22;17139;52.140;11.636;2023-05-07T05:21:30;9.60;54.50
9425;DHT22;17139;52.140;11.636;2023-05-07T05:23:59;9.60;54.50
9425;DHT22;17139;52.140;11.636;2023-05-07T05:26:26;10.30;54.50
9425;DHT22;17139;52.140;11.636;2023-05-07T05:28:53;10.10;53.90
9425;DHT22;17139;52.140;11.636;2023-05-07T05:31:20;9.90;54.10
9425;DHT22;17139;52.140;11.636;2023-05-07T05:33:47;9.80;54.30
9425;DHT22;17139;52.140;11.636;2023-05-07T05:36:14;9.80;54.40
9425;DHT22;17139;52.140;11.636;2023-05-07T05:38:41;9.70;54.50
9425;DHT22;17139;52.140;11.636;2023-05-07T05:41:10;9.70;54.50
9425;DHT22;17139;52.140;11.636;2023-05-07T05:43:37;9.70;54.50
9425;DHT22;17139;52.140;11.636;2023-05-07T05:46:06;9.80;54.60
9425;DHT22;17139;52.140;11.636;2023-05-07T05:48:34;9.80;54.50
9425;DHT22;17139;52.140;11.636;2023-05-07T05:51:01;9.80;54.30
9425;DHT22;17139;52.140;11.636;2023-05-07T05:53:28;9.80;54.30
9425;DHT22;17139;52.140;11.636;2023-05-07T05:55:55;9.90;54.40
9425;DHT22;17139;52.140;11.636;2023-05-07T05:58:24;10.70;54.30
9425;DHT22;17139;52.140;11.636;2023-05-07T06:00:51;10.60;53.60
9425;DHT22;17139;52.140;11.636;2023-05-07T06:03:18;10.30;53.70
9425;DHT22;17139;52.140;11.636;2023-05-07T06:05:45;10.20;54.00
9425;DHT22;17139;52.140;11.636;2023-05-07T06:08:13;10.10;54.00
9425;DHT22;17139;52.140;11.636;2023-05-07T06:10:40;10.00;54.10
9425;DHT22;17139;52.140;11.636;2023-05-07T06:13:07;10.00;54.20
9425;DHT22;17139;52.140;11.636;2023-05-07T06:15:35;10.00;54.30
9425;DHT22;17139;52.140;11.636;2023-05-07T06:18:02;9.90;54.30
9425;DHT22;17139;52.140;11.636;2023-05-07T06:20:29;9.90;54.30
9425;DHT22;17139;52.140;11.636;2023-05-07T06:22:56;10.80;53.90
9425;DHT22;17139;52.140;11.636;2023-05-07T06:25:23;10.60;53.40
9425;DHT22;17139;52.140;11.636;2023-05-07T06:27:50;10.40;53.70
9425;DHT22;17139;52.140;11.636;2023-05-07T06:30:17;10.30;53.90
9425;DHT22;17139;52.140;11.636;2023-05-07T06:32:46;10.20;54.00
9425;DHT22;17139;52.140;11.636;2023-05-07T06:35:13;10.30;54.20
9425;DHT22;17139;52.140;11.636;2023-05-07T06:37:40;10.30;54.10
9425;DHT22;17139;52.140;11.636;2023-05-07T06:40:09;10.30;54.00
9425;DHT22;17139;52.140;11.636;2023-05-07T06:42:36;10.30;54.10
9425;DHT22;17139;52.140;11.636;2023-05-07T06:45:04;10.50;54.20
9425;DHT22;17139;52.140;11.636;2023-05-07T06:47:32;10.70;53.80
9425;DHT22;17139;52.140;11.636;2023-05-07T06:50:00;10.60;53.40
9425;DHT22;17139;52.140;11.636;2023-05-07T06:52:27;10.50;53.70
9425;DHT22;17139;52.140;11.636;2023-05-07T06:54:54;10.50;54.10
9425;DHT22;17139;52.140;11.636;2023-05-07T06:57:21;10.50;54.20
9425;DHT22;17139;52.140;11.636;2023-05-07T06:59:48;10.60;54.10
9425;DHT22;17139;52.140;11.636;2023-05-07T07:02:15;10.70;54.00
9425;DHT22;17139;52.140;11.636;2023-05-07T07:04:42;10.70;53.90
9425;DHT22;17139;52.140;11.636;2023-05-07T07:07:14;10.80;53.90
9425;DHT22;17139;52.140;11.636;2023-05-07T07:09:41;11.70;52.90
9425;DHT22;17139;52.140;11.636;2023-05-07T07:12:08;11.40;52.70
9425;DHT22;17139;52.140;11.636;2023-05-07T07:14:35;11.20;53.10
9425;DHT22;17139;52.140;11.636;2023-05-07T07:17:02;11.20;53.40
9425;DHT22;17139;52.140;11.636;2023-05-07T07:19:30;11.10;53.30
9425;DHT22;17139;52.140;11.636;2023-05-07T07:21:58;11.10;53.50
9425;DHT22;17139;52.140;11.636;2023-05-07T07:24:26;11.00;53.60
9425;DHT22;17139;52.140;11.636;2023-05-07T07:26:53;11.00;53.80
9425;DHT22;17139;52.140;11.636;2023-05-07T07:29:21;11.00;53.80
9425;DHT22;17139;52.140;11.636;2023-05-07T07:31:48;11.00;53.80
9425;DHT22;17139;52.140;11.636;2023-05-07T07:34:15;11.00;53.80
9425;DHT22;17139;52.140;11.636;2023-05-07T07:36:42;11.00;53.80
9425;DHT22;17139;52.140;11.636;2023-05-07T07:39:09;11.40;53.50
9425;DHT22;17139;52.140;11.636;2023-05-07T07:41:38;11.50;52.90
9425;DHT22;17139;52.140;11.636;2023-05-07T07:44:05;11.90;52.70
9425;DHT22;17139;52.140;11.636;2023-05-07T07:46:33;11.60;52.80
9425;DHT22;17139;52.140;11.636;2023-05-07T07:49:00;11.50;52.90
9425;DHT22;17139;52.140;11.636;2023-05-07T07:51:27;11.40;53.10
9425;DHT22;17139;52.140;11.636;2023-05-07T07:53:54;11.30;53.40
9425;DHT22;17139;52.140;11.636;2023-05-07T07:56:23;11.20;53.50
9425;DHT22;17139;52.140;11.636;2023-05-07T07:58:51;11.20;53.80
9425;DHT22;17139;52.140;11.636;2023-05-07T08:01:18;11.20;53.90
9425;DHT22;17139;52.140;11.636;2023-05-07T08:03:45;11.30;53.80
9425;DHT22;17139;52.140;11.636;2023-05-07T08:06:12;11.20;53.60
9425;DHT22;17139;52.140;11.636;2023-05-07T08:08:39;11.10;53.70
9425;DHT22;17139;52.140;11.636;2023-05-07T08:11:06;11.10;53.80
9425;DHT22;17139;52.140;11.636;2023-05-07T08:13:33;11.10;53.80
9425;DHT22;17139;52.140;11.636;2023-05-07T08:16:02;11.10;53.90
9425;DHT22;17139;52.140;11.636;2023-05-07T08:18:29;11.20;54.00
9425;DHT22;17139;52.140;11.636;2023-05-07T08:20:56;11.20;53.90
9425;DHT22;17139;52.140;11.636;2023-05-07T08:23:23;11.20;53.90
9425;DHT22;17139;52.140;11.636;2023-05-07T08:25:50;11.90;53.20
9425;DHT22;17139;52.140;11.636;2023-05-07T08:28:17;11.80;53.10
9425;DHT22;17139;52.140;11.636;2023-05-07T08:30:45;11.60;53.10
9425;DHT22;17139;52.140;11.636;2023-05-07T08:33:13;12.00;53.20
9425;DHT22;17139;52.140;11.636;2023-05-07T08:35:40;11.80;53.10
9425;DHT22;17139;52.140;11.636;2023-05-07T08:38:07;11.70;53.10
9425;DHT22;17139;52.140;11.636;2023-05-07T08:40:37;11.60;53.50
9425;DHT22;17139;52.140;11.636;2023-05-07T08:43:06;11.50;53.70
9425;DHT22;17139;52.140;11.636;2023-05-07T08:45:34;11.40;53.80
9425;DHT22;17139;52.140;11.636;2023-05-07T08:48:04;11.50;53.90
9425;DHT22;17139;52.140;11.636;2023-05-07T08:50:35;11.60;53.90
9425;DHT22;17139;52.140;11.636;2023-05-07T08:53:03;11.60;53.80
9425;DHT22;17139;52.140;11.636;2023-05-07T08:55:30;11.50;53.70
9425;DHT22;17139;52.140;11.636;2023-05-07T08:57:58;11.90;53.50
9425;DHT22;17139;52.140;11.636;2023-05-07T09:00:25;12.50;52.80
9425;DHT22;17139;52.140;11.636;2023-05-07T09:02:52;12.30;52.60
9425;DHT22;17139;52.140;11.636;2023-05-07T09:05:20;12.20;53.00
9425;DHT22;17139;52.140;11.636;2023-05-07T09:07:48;12.10;53.30
9425;DHT22;17139;52.140;11.636;2023-05-07T09:10:16;12.00;53.30
9425;DHT22;17139;52.140;11.636;2023-05-07T09:12:43;11.90;53.50
9425;DHT22;17139;52.140;11.636;2023-05-07T09:15:10;11.80;53.70
9425;DHT22;17139;52.140;11.636;2023-05-07T09:17:37;11.80;53.70
9425;DHT22;17139;52.140;11.636;2023-05-07T09:20:08;11.80;53.60
9425;DHT22;17139;52.140;11.636;2023-05-07T09:22:36;12.30;53.10
9425;DHT22;17139;52.140;11.636;2023-05-07T09:25:06;12.80;52.40
9425;DHT22;17139;52.140;11.636;2023-05-07T09:27:34;12.50;52.60
9425;DHT22;17139;52.140;11.636;2023-05-07T09:30:03;12.30;53.00
9425;DHT22;17139;52.140;11.636;2023-05-07T09:32:34;12.20;53.30
9425;DHT22;17139;52.140;11.636;2023-05-07T09:35:01;12.20;53.50
9425;DHT22;17139;52.140;11.636;2023-05-07T09:37:30;12.20;53.50
9425;DHT22;17139;52.140;11.636;2023-05-07T09:39:57;12.50;53.10
9425;DHT22;17139;52.140;11.636;2023-05-07T09:42:26;12.70;52.90
9425;DHT22;17139;52.140;11.636;2023-05-07T09:44:53;12.80;52.90
9425;DHT22;17139;52.140;11.636;2023-05-07T09:47:24;12.80;53.00
9425;DHT22;17139;52.140;11.636;2023-05-07T09:49:55;13.40;52.00
9425;DHT22;17139;52.140;11.636;2023-05-07T09:52:23;13.40;52.10
9425;DHT22;17139;52.140;11.636;2023-05-07T09:54:55;13.30;52.50
9425;DHT22;17139;52.140;11.636;2023-05-07T09:57:23;13.20;52.60
9425;DHT22;17139;52.140;11.636;2023-05-07T09:59:53;13.20;52.70
9425;DHT22;17139;52.140;11.636;2023-05-07T10:02:22;13.20;52.70
9425;DHT22;17139;52.140;11.636;2023-05-07T10:04:50;13.10;52.80
9425;DHT22;17139;52.140;11.636;2023-05-07T10:07:18;13.00;52.90
9425;DHT22;17139;52.140;11.636;2023-05-07T10:09:46;13.00;53.00
9425;DHT22;17139;52.140;11.636;2023-05-07T10:12:13;13.90;51.60
9425;DHT22;17139;52.140;11.636;2023-05-07T10:14:40;13.80;52.60
9425;DHT22;17139;52.140;11.636;2023-05-07T10:17:09;13.70;52.10
9425;DHT22;17139;52.140;11.636;2023-05-07T10:19:38;13.60;52.40
9425;DHT22;17139;52.140;11.636;2023-05-07T10:22:06;13.50;52.60
9425;DHT22;17139;52.140;11.636;2023-05-07T10:24:37;13.50;52.80
9425;DHT22;17139;52.140;11.636;2023-05-07T10:27:10;13.50;52.80
9425;DHT22;17139;52.140;11.636;2023-05-07T10:29:48;13.40;52.70
9425;DHT22;17139;52.140;11.636;2023-05-07T10:32:33;13.40;52.90
9425;DHT22;17139;52.140;11.636;2023-05-07T10:35:06;14.10;51.30
9425;DHT22;17139;52.140;11.636;2023-05-07T10:37:35;14.60;49.90
9425;DHT22;17139;52.140;11.636;2023-05-07T10:40:03;14.20;50.80
9425;DHT22;17139;52.140;11.636;2023-05-07T10:42:34;13.90;51.60
9425;DHT22;17139;52.140;11.636;2023-05-07T10:45:12;13.80;52.00
9425;DHT22;17139;52.140;11.636;2023-05-07T10:48:09;13.80;52.20
9425;DHT22;17139;52.140;11.636;2023-05-07T10:50:37;13.80;52.40
9425;DHT22;17139;52.140;11.636;2023-05-07T10:53:24;13.60;52.40
9425;DHT22;17139;52.140;11.636;2023-05-07T10:56:24;13.70;52.10
9425;DHT22;17139;52.140;11.636;2023-05-07T10:58:52;14.10;51.90
9425;DHT22;17139;52.140;11.636;2023-05-07T11:01:49;13.90;52.10
9425;DHT22;17139;52.140;11.636;2023-05-07T11:04:18;13.90;52.40
9425;DHT22;17139;52.140;11.636;2023-05-07T11:07:26;13.90;52.60
9425;DHT22;17139;52.140;11.636;2023-05-07T11:09:57;14.10;52.60
9425;DHT22;17139;52.140;11.636;2023-05-07T11:12:54;14.10;52.40
9425;DHT22;17139;52.140;11.636;2023-05-07T11:15:38;14.20;52.30
9425;DHT22;17139;52.140;11.636;2023-05-07T11:18:07;14.70;51.10
9425;DHT22;17139;52.140;11.636;2023-05-07T11:20:50;14.60;51.50
9425;DHT22;17139;52.140;11.636;2023-05-07T11:23:57;14.50;51.70
9425;DHT22;17139;52.140;11.636;2023-05-07T11:26:26;15.10;50.10
9425;DHT22;17139;52.140;11.636;2023-05-07T11:28:53;14.80;51.20
9425;DHT22;17139;52.140;11.636;2023-05-07T11:31:21;14.60;51.50
9425;DHT22;17139;52.140;11.636;2023-05-07T11:33:49;14.40;51.80
9425;DHT22;17139;52.140;11.636;2023-05-07T11:36:18;14.40;52.10
9425;DHT22;17139;52.140;11.636;2023-05-07T11:38:46;14.80;50.60
9425;DHT22;17139;52.140;11.636;2023-05-07T11:41:13;14.90;50.50
9425;DHT22;17139;52.140;11.636;2023-05-07T11:43:56;15.00;50.50
9425;DHT22;17139;52.140;11.636;2023-05-07T11:46:24;15.20;50.00
9425;DHT22;17139;52.140;11.636;2023-05-07T11:48:51;14.80;50.80
9425;DHT22;17139;52.140;11.636;2023-05-07T11:51:24;14.50;51.30
9425;DHT22;17139;52.140;11.636;2023-05-07T11:53:52;14.20;51.80
9425;DHT22;17139;52.140;11.636;2023-05-07T11:56:19;14.00;52.10
9425;DHT22;17139;52.140;11.636;2023-05-07T11:58:47;14.00;52.30
9425;DHT22;17139;52.140;11.636;2023-05-07T12:01:16;14.10;52.40
9425;DHT22;17139;52.140;11.636;2023-05-07T12:03:45;14.10;52.30
9425;DHT22;17139;52.140;11.636;2023-05-07T12:06:13;14.30;51.80
9425;DHT22;17139;52.140;11.636;2023-05-07T12:08:43;14.40;51.60
9425;DHT22;17139;52.140;11.636;2023-05-07T12:11:14;14.40;51.80
9425;DHT22;17139;52.140;11.636;2023-05-07T12:13:42;14.40;51.90
9425;DHT22;17139;52.140;11.636;2023-05-07T12:16:09;14.50;52.00
9425;DHT22;17139;52.140;11.636;2023-05-07T12:18:36;14.60;51.90
9425;DHT22;17139;52.140;11.636;2023-05-07T12:21:07;14.70;51.90
9425;DHT22;17139;52.140;11.636;2023-05-07T12:23:35;14.70;51.90
9425;DHT22;17139;52.140;11.636;2023-05-07T12:26:04;14.70;51.90
9425;DHT22;17139;52.140;11.636;2023-05-07T12:28:36;15.20;51.00
9425;DHT22;17139;52.140;11.636;2023-05-07T12:31:04;15.10;51.20
9425;DHT22;17139;52.140;11.636;2023-05-07T12:33:31;15.10;51.30
9425;DHT22;17139;52.140;11.636;2023-05-07T12:35:58;15.40;50.00
9425;DHT22;17139;52.140;11.636;2023-05-07T12:38:25;16.00;48.40
9425;DHT22;17139;52.140;11.636;2023-05-07T12:40:54;15.60;49.70
9425;DHT22;17139;52.140;11.636;2023-05-07T12:43:25;15.30;50.50
9425;DHT22;17139;52.140;11.636;2023-05-07T12:45:54;15.10;50.90
9425;DHT22;17139;52.140;11.636;2023-05-07T12:48:22;14.90;51.30
9425;DHT22;17139;52.140;11.636;2023-05-07T12:50:53;14.70;51.40
9425;DHT22;17139;52.140;11.636;2023-05-07T12:53:21;14.70;51.80
9425;DHT22;17139;52.140;11.636;2023-05-07T12:55:50;15.40;49.70
9425;DHT22;17139;52.140;11.636;2023-05-07T12:58:19;16.00;48.00
9425;DHT22;17139;52.140;11.636;2023-05-07T13:00:50;15.70;49.40
9425;DHT22;17139;52.140;11.636;2023-05-07T13:03:22;15.50;50.10
9425;DHT22;17139;52.140;11.636;2023-05-07T13:05:50;15.50;50.70
9425;DHT22;17139;52.140;11.636;2023-05-07T13:08:27;15.40;50.90
9425;DHT22;17139;52.140;11.636;2023-05-07T13:10:54;15.50;50.90
9425;DHT22;17139;52.140;11.636;2023-05-07T13:13:22;15.50;50.90
9425;DHT22;17139;52.140;11.636;2023-05-07T13:15:50;15.40;51.00
9425;DHT22;17139;52.140;11.636;2023-05-07T13:18:17;15.30;51.10
9425;DHT22;17139;52.140;11.636;2023-05-07T13:20:44;16.00;49.30
9425;DHT22;17139;52.140;11.636;2023-05-07T13:23:11;15.80;50.00
9425;DHT22;17139;52.140;11.636;2023-05-07T13:25:38;15.50;50.50
9425;DHT22;17139;52.140;11.636;2023-05-07T13:28:05;15.40;50.90
9425;DHT22;17139;52.140;11.636;2023-05-07T13:30:32;15.40;51.20
9425;DHT22;17139;52.140;11.636;2023-05-07T13:33:01;15.30;51.30
9425;DHT22;17139;52.140;11.636;2023-05-07T13:35:29;15.40;51.50
9425;DHT22;17139;52.140;11.636;2023-05-07T13:37:56;15.30;51.40
9425;DHT22;17139;52.140;11.636;2023-05-07T13:40:23;16.10;48.90
9425;DHT22;17139;52.140;11.636;2023-05-07T13:42:50;15.80;50.00
9425;DHT22;17139;52.140;11.636;2023-05-07T13:45:18;15.60;50.60
9425;DHT22;17139;52.140;11.636;2023-05-07T13:47:45;15.50;50.90
9425;DHT22;17139;52.140;11.636;2023-05-07T13:50:15;15.50;51.00
9425;DHT22;17139;52.140;11.636;2023-05-07T13:52:44;15.50;50.90
9425;DHT22;17139;52.140;11.636;2023-05-07T13:55:16;15.40;51.00
9425;DHT22;17139;52.140;11.636;2023-05-07T13:57:43;15.30;51.10
9425;DHT22;17139;52.140;11.636;2023-05-07T14:00:11;15.20;51.20
9425;DHT22;17139;52.140;11.636;2023-05-07T14:02:38;15.20;51.40
9425;DHT22;17139;52.140;11.636;2023-05-07T14:05:06;15.20;51.40
9425;DHT22;17139;52.140;11.636;2023-05-07T14:07:36;15.20;51.30
9425;DHT22;17139;52.140;11.636;2023-05-07T14:10:03;16.00;49.20
9425;DHT22;17139;52.140;11.636;2023-05-07T14:12:31;16.50;47.70
9425;DHT22;17139;52.140;11.636;2023-05-07T14:14:58;16.20;48.90
9425;DHT22;17139;52.140;11.636;2023-05-07T14:17:25;15.90;49.60
9425;DHT22;17139;52.140;11.636;2023-05-07T14:19:54;15.60;50.00
9425;DHT22;17139;52.140;11.636;2023-05-07T14:22:22;15.50;50.30
9425;DHT22;17139;52.140;11.636;2023-05-07T14:24:50;15.40;50.70
9425;DHT22;17139;52.140;11.636;2023-05-07T14:27:17;15.40;50.80
9425;DHT22;17139;52.140;11.636;2023-05-07T14:29:44;15.40;50.90
9425;DHT22;17139;52.140;11.636;2023-05-07T14:32:16;15.70;49.70
9425;DHT22;17139;52.140;11.636;2023-05-07T14:34:43;15.90;48.80
9425;DHT22;17139;52.140;11.636;2023-05-07T14:37:10;15.70;49.70
9425;DHT22;17139;52.140;11.636;2023-05-07T14:39:37;15.50;50.30
9425;DHT22;17139;52.140;11.636;2023-05-07T14:42:06;15.40;50.60
9425;DHT22;17139;52.140;11.636;2023-05-07T14:44:33;15.40;50.80
9425;DHT22;17139;52.140;11.636;2023-05-07T14:47:00;15.40;50.90
9425;DHT22;17139;52.140;11.636;2023-05-07T14:49:27;16.00;49.60
9425;DHT22;17139;52.140;11.636;2023-05-07T14:51:56;16.40;47.60
9425;DHT22;17139;52.140;11.636;2023-05-07T14:54:23;15.90;48.80
9425;DHT22;17139;52.140;11.636;2023-05-07T14:56:50;15.50;49.60
9425;DHT22;17139;52.140;11.636;2023-05-07T14:59:19;15.40;49.40
9425;DHT22;17139;52.140;11.636;2023-05-07T15:01:46;15.10;50.00
9425;DHT22;17139;52.140;11.636;2023-05-07T15:04:13;14.80;50.60
9425;DHT22;17139;52.140;11.636;2023-05-07T15:06:40;14.60;51.00
9425;DHT22;17139;52.140;11.636;2023-05-07T15:09:07;14.50;50.90
9425;DHT22;17139;52.140;11.636;2023-05-07T15:11:35;14.40;51.20
9425;DHT22;17139;52.140;11.636;2023-05-07T15:14:02;14.50;51.50
9425;DHT22;17139;52.140;11.636;2023-05-07T15:16:30;14.50;52.00
9425;DHT22;17139;52.140;11.636;2023-05-07T15:18:58;14.80;50.40
9425;DHT22;17139;52.140;11.636;2023-05-07T15:21:25;15.10;49.10
9425;DHT22;17139;52.140;11.636;2023-05-07T15:23:53;15.00;50.00
9425;DHT22;17139;52.140;11.636;2023-05-07T15:26:20;14.80;50.50
9425;DHT22;17139;52.140;11.636;2023-05-07T15:28:47;14.80;51.00
9425;DHT22;17139;52.140;11.636;2023-05-07T15:31:15;14.70;51.10
9425;DHT22;17139;52.140;11.636;2023-05-07T15:33:43;14.70;51.10
9425;DHT22;17139;52.140;11.636;2023-05-07T15:36:10;14.60;51.00
9425;DHT22;17139;52.140;11.636;2023-05-07T15:38:37;14.60;51.10
9425;DHT22;17139;52.140;11.636;2023-05-07T15:41:04;15.10;50.10
9425;DHT22;17139;52.140;11.636;2023-05-07T15:43:31;15.50;49.00